Time;durP1;ratioP1;P1;durP2;ratioP2;P2;SDS_P1;SDS_P2;PMS_P1;PMS_P2;Temp;Humidity;BMP_temperature;BMP_pressure;BME280_temperature;BME280_humidity;BME280_pressure;Samples;Min_cycle;Max_cycle;Signal;HPM_P1;HPM_P2
2022/01/08 00:01:27;;;;;;;;;;;5.70;79.70;;;;;;5028412;28;81968;-42
2022/01/08 00:03:53;;;;;;;;;;;5.70;79.70;;;;;;5027856;28;84841;-41
2022/01/08 00:06:19;;;;;;;;;;;5.70;79.60;;;;;;5030703;28;82064;-41
2022/01/08 00:08:44;;;;;;;;;;;5.70;79.50;;;;;;5027932;28;85143;-42
2022/01/08 00:11:14;;;;;;;;;;;5.70;79.50;;;;;;5027919;28;82067;-42
2022/01/08 00:13:40;;;;;;;;;;;5.70;79.60;;;;;;5028383;28;83014;-42
2022/01/08 00:16:06;;;;;;;;;;;5.70;79.60;;;;;;5027603;28;84707;-42
2022/01/08 00:18:31;;;;;;;;;;;5.70;79.60;;;;;;5027977;28;82067;-41
2022/01/08 00:20:57;;;;;;;;;;;5.70;79.80;;;;;;5027072;28;83633;-41
2022/01/08 00:23:22;;;;;;;;;;;5.70;79.70;;;;;;5027660;28;83358;-42
2022/01/08 00:25:49;;;;;;;;;;;5.60;80.40;;;;;;5027819;28;82043;-41
2022/01/08 00:28:14;;;;;;;;;;;5.60;79.70;;;;;;5030335;28;83094;-42
2022/01/08 00:30:40;;;;;;;;;;;5.70;79.60;;;;;;5027908;28;81989;-41
2022/01/08 00:33:05;;;;;;;;;;;5.70;79.70;;;;;;5027665;28;83837;-41
2022/01/08 00:35:32;;;;;;;;;;;5.60;79.50;;;;;;5027471;28;84618;-42
2022/01/08 00:37:58;;;;;;;;;;;5.70;79.60;;;;;;5027941;28;81024;-42
2022/01/08 00:40:24;;;;;;;;;;;5.60;79.60;;;;;;5027359;28;83272;-42
2022/01/08 00:42:50;;;;;;;;;;;5.60;79.80;;;;;;5027441;28;84760;-42
2022/01/08 00:45:15;;;;;;;;;;;5.60;79.70;;;;;;5026772;28;82763;-42
2022/01/08 00:47:41;;;;;;;;;;;5.60;79.70;;;;;;5027499;28;84731;-42
2022/01/08 00:50:06;;;;;;;;;;;5.60;79.80;;;;;;5029395;28;84470;-42
2022/01/08 00:52:32;;;;;;;;;;;5.60;79.90;;;;;;5027056;28;85056;-42
2022/01/08 00:54:57;;;;;;;;;;;5.60;79.80;;;;;;5027407;28;83887;-42
2022/01/08 00:57:23;;;;;;;;;;;5.60;79.90;;;;;;5027244;28;81890;-42
2022/01/08 00:59:48;;;;;;;;;;;5.60;79.70;;;;;;5027437;28;83007;-41
2022/01/08 01:02:14;;;;;;;;;;;5.60;79.60;;;;;;5027463;28;83488;-42
2022/01/08 01:04:39;;;;;;;;;;;5.60;79.70;;;;;;5027410;28;82054;-42
2022/01/08 01:07:05;;;;;;;;;;;5.60;79.70;;;;;;5026937;28;83839;-42
2022/01/08 01:09:30;;;;;;;;;;;5.60;79.60;;;;;;5026308;28;85619;-42
2022/01/08 01:11:57;;;;;;;;;;;5.60;79.80;;;;;;5029774;28;82027;-42
2022/01/08 01:14:23;;;;;;;;;;;5.60;79.90;;;;;;5026975;28;84533;-41
2022/01/08 01:16:49;;;;;;;;;;;5.60;79.80;;;;;;5026978;28;82033;-41
2022/01/08 01:19:14;;;;;;;;;;;5.60;79.70;;;;;;5027010;28;82800;-41
2022/01/08 01:21:40;;;;;;;;;;;5.50;79.60;;;;;;5026781;28;82450;-42
2022/01/08 01:24:12;;;;;;;;;;;5.60;79.60;;;;;;5027146;28;81928;-42
2022/01/08 01:26:44;;;;;;;;;;;5.60;79.70;;;;;;5027509;28;84163;-42
2022/01/08 01:29:51;;;;;;;;;;;5.60;79.70;;;;;;5026810;28;84528;-42
2022/01/08 01:43:21;;;;;;;;;;;5.50;79.70;;;;;;5024087;28;82138;-41
2022/01/08 01:48:31;;;;;;;;;;;5.50;79.70;;;;;;5026392;28;81770;-42
2022/01/08 01:50:56;;;;;;;;;;;5.50;79.60;;;;;;5026222;28;83646;-42
2022/01/08 01:53:22;;;;;;;;;;;5.50;79.70;;;;;;5026995;28;81206;-42
2022/01/08 01:55:50;;;;;;;;;;;5.50;79.60;;;;;;5026802;28;82272;-42
2022/01/08 01:58:16;;;;;;;;;;;5.50;79.60;;;;;;5029015;28;84330;-41
2022/01/08 02:00:43;;;;;;;;;;;5.50;79.70;;;;;;5025891;28;83743;-42
2022/01/08 02:03:08;;;;;;;;;;;5.50;79.70;;;;;;5028275;28;83891;-42
2022/01/08 02:05:34;;;;;;;;;;;5.50;79.70;;;;;;5029831;28;82082;-42
2022/01/08 02:07:59;;;;;;;;;;;5.50;79.60;;;;;;5030079;28;84018;-42
2022/01/08 02:10:25;;;;;;;;;;;5.50;79.60;;;;;;5029734;28;84442;-42
2022/01/08 02:12:50;;;;;;;;;;;5.40;79.60;;;;;;5030059;28;82052;-42
2022/01/08 02:15:16;;;;;;;;;;;5.50;79.60;;;;;;5029870;28;82875;-41
2022/01/08 02:17:42;;;;;;;;;;;5.40;79.60;;;;;;5032687;28;83815;-42
2022/01/08 02:20:08;;;;;;;;;;;5.50;79.60;;;;;;5029609;28;83043;-42
2022/01/08 02:22:33;;;;;;;;;;;5.40;79.60;;;;;;5029591;28;84910;-42
2022/01/08 02:24:59;;;;;;;;;;;5.40;79.80;;;;;;5029188;28;83045;-41
2022/01/08 02:27:24;;;;;;;;;;;5.40;79.70;;;;;;5029592;28;85159;-41
2022/01/08 02:29:50;;;;;;;;;;;5.40;79.70;;;;;;5029476;28;84224;-41
2022/01/08 02:32:18;;;;;;;;;;;5.40;79.80;;;;;;5029447;28;82058;-42
2022/01/08 02:34:45;;;;;;;;;;;5.40;79.70;;;;;;5029587;28;84057;-41
2022/01/08 02:37:11;;;;;;;;;;;5.40;79.80;;;;;;5029368;28;86193;-41
2022/01/08 02:39:41;;;;;;;;;;;5.40;79.70;;;;;;5032495;28;82080;-41
2022/01/08 02:42:08;;;;;;;;;;;5.40;79.60;;;;;;5029411;28;83533;-41
2022/01/08 02:44:34;;;;;;;;;;;5.40;79.70;;;;;;5029590;28;81970;-41
2022/01/08 02:47:00;;;;;;;;;;;5.40;79.70;;;;;;5029532;28;83725;-41
2022/01/08 02:49:26;;;;;;;;;;;5.40;79.70;;;;;;5028320;28;85302;-42
2022/01/08 02:51:52;;;;;;;;;;;5.40;79.80;;;;;;5029116;28;82120;-42
2022/01/08 02:54:17;;;;;;;;;;;5.30;79.80;;;;;;5029362;28;84113;-42
2022/01/08 02:56:45;;;;;;;;;;;5.30;79.80;;;;;;5029084;28;83149;-42
2022/01/08 02:59:11;;;;;;;;;;;5.30;80.00;;;;;;5029092;28;82004;-41
2022/01/08 03:01:36;;;;;;;;;;;5.30;80.00;;;;;;5031666;28;83842;-41
2022/01/08 03:04:03;;;;;;;;;;;5.30;80.10;;;;;;5028962;28;82171;-41
2022/01/08 03:06:28;;;;;;;;;;;5.30;79.90;;;;;;5029540;28;84149;-41
2022/01/08 03:08:54;;;;;;;;;;;5.30;79.90;;;;;;5028877;28;84531;-42
2022/01/08 03:11:19;;;;;;;;;;;5.30;80.10;;;;;;5028961;28;82082;-42
2022/01/08 03:13:45;;;;;;;;;;;5.30;80.00;;;;;;5027933;28;83253;-42
2022/01/08 03:16:11;;;;;;;;;;;5.30;80.00;;;;;;5028573;28;84216;-41
2022/01/08 03:18:37;;;;;;;;;;;5.30;80.00;;;;;;5028911;28;82088;-41
2022/01/08 03:21:13;;;;;;;;;;;5.20;80.00;;;;;;5028778;28;83019;-42
2022/01/08 03:23:46;;;;;;;;;;;5.20;80.00;;;;;;5031810;28;83131;-41
2022/01/08 03:26:12;;;;;;;;;;;5.20;80.00;;;;;;5028636;28;83801;-42
2022/01/08 03:28:37;;;;;;;;;;;5.20;80.30;;;;;;5028560;28;84466;-42
2022/01/08 03:31:03;;;;;;;;;;;5.20;80.10;;;;;;5029170;28;81100;-42
2022/01/08 03:33:29;;;;;;;;;;;5.20;80.10;;;;;;5028533;28;83577;-42
2022/01/08 03:35:54;;;;;;;;;;;5.20;80.00;;;;;;5028491;28;84747;-42
2022/01/08 03:38:20;;;;;;;;;;;5.20;80.00;;;;;;5027903;28;83114;-41
2022/01/08 03:40:45;;;;;;;;;;;5.20;80.00;;;;;;5027878;28;85085;-42
2022/01/08 03:43:11;;;;;;;;;;;5.20;80.20;;;;;;5028246;28;83783;-42
2022/01/08 03:45:36;;;;;;;;;;;5.20;80.20;;;;;;5031233;28;82121;-42
2022/01/08 03:50:30;;;;;;;;;;;5.10;80.30;;;;;;5028493;28;82024;-42
2022/01/08 03:52:56;;;;;;;;;;;5.10;80.50;;;;;;5028477;28;84064;-41
2022/01/08 03:55:22;;;;;;;;;;;5.10;80.40;;;;;;5028770;28;82996;-42
2022/01/08 03:57:47;;;;;;;;;;;5.10;80.40;;;;;;5028416;28;81728;-42
2022/01/08 04:00:13;;;;;;;;;;;5.10;80.40;;;;;;5028135;28;84062;-41
2022/01/08 04:02:39;;;;;;;;;;;5.10;80.30;;;;;;5027092;28;86583;-42
2022/01/08 04:05:04;;;;;;;;;;;5.10;80.30;;;;;;5028203;28;82060;-42
2022/01/08 04:07:30;;;;;;;;;;;5.10;80.30;;;;;;5030644;28;84569;-42
2022/01/08 04:09:56;;;;;;;;;;;5.10;80.40;;;;;;5027948;28;82150;-41
2022/01/08 04:12:31;;;;;;;;;;;5.10;80.30;;;;;;5028085;28;84039;-42
2022/01/08 04:15:06;;;;;;;;;;;5.10;80.30;;;;;;5026741;28;85162;-42
2022/01/08 04:17:31;;;;;;;;;;;5.10;80.60;;;;;;5028123;28;82112;-41
2022/01/08 04:19:57;;;;;;;;;;;5.10;81.00;;;;;;5028578;28;84068;-42
2022/01/08 04:22:24;;;;;;;;;;;5.10;80.40;;;;;;5027600;28;84954;-42
2022/01/08 04:24:50;;;;;;;;;;;5.10;80.30;;;;;;5026750;28;82189;-41
2022/01/08 04:27:15;;;;;;;;;;;5.10;80.40;;;;;;5029665;28;83863;-41
2022/01/08 04:29:41;;;;;;;;;;;5.00;80.50;;;;;;5027745;28;81987;-41
2022/01/08 04:32:07;;;;;;;;;;;5.00;80.50;;;;;;5027589;28;84077;-42
2022/01/08 04:34:32;;;;;;;;;;;5.00;80.50;;;;;;5027471;28;83835;-42
2022/01/08 04:36:58;;;;;;;;;;;5.00;80.40;;;;;;5027730;28;82120;-42
2022/01/08 04:39:23;;;;;;;;;;;5.00;80.40;;;;;;5027575;28;84394;-41
2022/01/08 04:41:49;;;;;;;;;;;5.00;80.50;;;;;;5026778;28;84572;-42
2022/01/08 04:44:14;;;;;;;;;;;5.00;80.50;;;;;;5027953;28;81416;-42
2022/01/08 04:46:41;;;;;;;;;;;5.00;80.50;;;;;;5027304;28;83164;-42
2022/01/08 04:49:07;;;;;;;;;;;5.00;80.60;;;;;;5029978;28;84445;-41
2022/01/08 04:51:33;;;;;;;;;;;5.00;80.50;;;;;;5026682;28;83803;-41
2022/01/08 04:53:58;;;;;;;;;;;5.00;80.60;;;;;;5027346;28;84761;-42
2022/01/08 04:56:24;;;;;;;;;;;5.00;80.70;;;;;;5027245;28;82071;-42
2022/01/08 04:58:49;;;;;;;;;;;4.90;80.70;;;;;;5027173;28;83760;-42
2022/01/08 05:01:16;;;;;;;;;;;4.90;80.90;;;;;;5026866;28;84981;-42
2022/01/08 05:03:42;;;;;;;;;;;4.90;80.70;;;;;;5027265;28;81711;-42
2022/01/08 05:06:07;;;;;;;;;;;4.90;80.70;;;;;;5027239;28;83966;-42
2022/01/08 05:08:33;;;;;;;;;;;4.90;80.70;;;;;;5027637;28;82992;-42
2022/01/08 05:10:59;;;;;;;;;;;4.90;80.70;;;;;;5029833;28;81882;-41
2022/01/08 05:13:24;;;;;;;;;;;4.90;80.70;;;;;;5026892;28;84765;-42
2022/01/08 05:15:50;;;;;;;;;;;4.90;80.70;;;;;;5026528;28;83135;-42
2022/01/08 05:18:15;;;;;;;;;;;4.90;80.70;;;;;;5026845;28;84720;-42
2022/01/08 05:20:45;;;;;;;;;;;4.90;80.70;;;;;;5026652;28;83987;-42
2022/01/08 05:23:11;;;;;;;;;;;4.90;80.70;;;;;;5026920;28;82118;-41
2022/01/08 05:25:37;;;;;;;;;;;4.90;80.70;;;;;;5026932;28;83878;-41
2022/01/08 05:28:02;;;;;;;;;;;4.90;80.70;;;;;;5025333;28;86352;-41
2022/01/08 05:30:28;;;;;;;;;;;4.90;80.60;;;;;;5026775;28;82179;-41
2022/01/08 05:32:54;;;;;;;;;;;4.90;80.60;;;;;;5029859;28;83720;-41
2022/01/08 05:35:20;;;;;;;;;;;4.90;80.80;;;;;;5026716;28;81805;-42
2022/01/08 05:37:46;;;;;;;;;;;4.90;80.70;;;;;;5026751;28;82899;-42
2022/01/08 05:40:11;;;;;;;;;;;4.90;80.70;;;;;;5025156;28;84473;-42
2022/01/08 05:42:37;;;;;;;;;;;4.90;80.70;;;;;;5026596;28;81991;-42
2022/01/08 05:45:03;;;;;;;;;;;4.90;80.70;;;;;;5025210;28;84578;-41
2022/01/08 05:47:31;;;;;;;;;;;4.90;80.60;;;;;;5026416;28;84296;-42
2022/01/08 05:49:57;;;;;;;;;;;4.90;80.70;;;;;;5026523;28;82159;-41
2022/01/08 05:52:22;;;;;;;;;;;4.80;80.60;;;;;;5026604;28;83984;-41
2022/01/08 05:54:48;;;;;;;;;;;4.80;80.60;;;;;;5029144;28;83992;-42
2022/01/08 05:57:14;;;;;;;;;;;4.80;80.70;;;;;;5026956;28;83864;-42
2022/01/08 05:59:39;;;;;;;;;;;4.80;80.70;;;;;;5026109;28;85050;-42
2022/01/08 06:02:06;;;;;;;;;;;4.80;80.70;;;;;;5026416;28;82042;-42
2022/01/08 06:04:32;;;;;;;;;;;4.80;80.60;;;;;;5025899;28;84132;-41
2022/01/08 06:06:57;;;;;;;;;;;4.80;80.80;;;;;;5026030;28;84647;-42
2022/01/08 06:09:23;;;;;;;;;;;4.80;80.90;;;;;;5026293;28;82073;-42
2022/01/08 06:11:48;;;;;;;;;;;4.80;80.90;;;;;;5026467;28;83010;-42
2022/01/08 06:14:14;;;;;;;;;;;4.80;80.90;;;;;;5026068;28;84849;-41
2022/01/08 06:16:39;;;;;;;;;;;4.80;80.90;;;;;;5028693;28;81965;-42
2022/01/08 06:19:06;;;;;;;;;;;4.80;80.90;;;;;;5026204;28;84461;-42
2022/01/08 06:21:32;;;;;;;;;;;4.80;80.80;;;;;;5026588;28;81391;-41
2022/01/08 06:23:57;;;;;;;;;;;4.70;80.80;;;;;;5026431;28;83136;-42
2022/01/08 06:26:23;;;;;;;;;;;4.80;80.90;;;;;;5026053;28;84643;-41
2022/01/08 06:28:51;;;;;;;;;;;4.70;80.90;;;;;;5025498;28;82996;-41
2022/01/08 06:31:18;;;;;;;;;;;4.70;80.90;;;;;;5025738;28;84734;-42
2022/01/08 06:33:43;;;;;;;;;;;4.70;80.90;;;;;;5025866;28;84325;-41
2022/01/08 06:36:09;;;;;;;;;;;4.70;80.90;;;;;;5028748;28;82126;-42
2022/01/08 06:38:34;;;;;;;;;;;4.80;80.80;;;;;;5026013;28;83693;-42
2022/01/08 06:40:59;;;;;;;;;;;4.70;80.80;;;;;;5025494;28;82170;-42
2022/01/08 06:43:25;;;;;;;;;;;4.70;80.80;;;;;;5026094;28;83835;-41
2022/01/08 06:45:50;;;;;;;;;;;4.70;80.70;;;;;;5026193;28;84052;-41
2022/01/08 06:48:16;;;;;;;;;;;4.70;80.80;;;;;;5026605;28;82068;-41
2022/01/08 06:50:41;;;;;;;;;;;4.70;80.70;;;;;;5029239;28;84264;-41
2022/01/08 06:53:07;;;;;;;;;;;4.70;80.90;;;;;;5028525;28;85581;-42
2022/01/08 06:55:32;;;;;;;;;;;4.70;80.80;;;;;;5029194;28;82096;-41
2022/01/08 06:57:59;;;;;;;;;;;4.70;80.80;;;;;;5031767;28;83724;-41
2022/01/08 07:00:25;;;;;;;;;;;4.70;80.90;;;;;;5028825;28;82065;-41
2022/01/08 07:02:51;;;;;;;;;;;4.70;80.90;;;;;;5029010;28;84169;-41
2022/01/08 07:05:16;;;;;;;;;;;4.70;80.90;;;;;;5028957;28;84119;-41
2022/01/08 07:07:42;;;;;;;;;;;4.70;80.90;;;;;;5029057;28;82085;-42
2022/01/08 07:10:07;;;;;;;;;;;4.70;80.80;;;;;;5029357;28;84508;-41
2022/01/08 07:12:33;;;;;;;;;;;4.70;80.70;;;;;;5028631;28;84127;-41
2022/01/08 07:14:58;;;;;;;;;;;4.70;81.00;;;;;;5028767;28;82007;-42
2022/01/08 07:17:24;;;;;;;;;;;4.70;80.90;;;;;;5028413;28;83168;-41
2022/01/08 07:19:49;;;;;;;;;;;4.70;80.90;;;;;;5031678;28;83615;-41
2022/01/08 07:22:15;;;;;;;;;;;4.70;80.90;;;;;;5028676;28;84034;-42
2022/01/08 07:24:41;;;;;;;;;;;4.70;81.00;;;;;;5028528;28;83795;-41
2022/01/08 07:27:06;;;;;;;;;;;4.70;80.80;;;;;;5028761;28;82113;-41
2022/01/08 07:29:32;;;;;;;;;;;4.60;81.10;;;;;;5028612;28;83720;-42
2022/01/08 07:31:57;;;;;;;;;;;4.70;81.10;;;;;;5028671;28;83968;-42
2022/01/08 07:34:23;;;;;;;;;;;4.60;81.00;;;;;;5029038;28;81409;-41
2022/01/08 07:36:48;;;;;;;;;;;4.60;81.10;;;;;;5028589;28;83431;-42
2022/01/08 07:39:14;;;;;;;;;;;4.60;81.10;;;;;;5028389;28;84704;-41
2022/01/08 07:41:39;;;;;;;;;;;4.60;81.00;;;;;;5030410;28;83044;-42
2022/01/08 07:44:05;;;;;;;;;;;4.60;81.10;;;;;;5028282;28;85089;-42
2022/01/08 07:46:31;;;;;;;;;;;4.60;81.20;;;;;;5028135;28;82069;-42
2022/01/08 07:48:56;;;;;;;;;;;4.60;81.10;;;;;;5028533;28;83708;-42
2022/01/08 07:51:22;;;;;;;;;;;4.60;81.00;;;;;;5028242;28;84933;-42
2022/01/08 07:53:47;;;;;;;;;;;4.60;81.00;;;;;;5028406;28;82053;-42
2022/01/08 07:56:13;;;;;;;;;;;4.60;81.10;;;;;;5028277;28;84345;-42
2022/01/08 07:58:38;;;;;;;;;;;4.60;81.20;;;;;;5028723;28;83593;-41
2022/01/08 08:01:04;;;;;;;;;;;4.60;81.00;;;;;;5027957;28;82180;-42
2022/01/08 08:03:29;;;;;;;;;;;4.60;81.20;;;;;;5030944;28;84218;-41
2022/01/08 08:05:55;;;;;;;;;;;4.60;81.20;;;;;;5027490;28;83014;-42
2022/01/08 08:08:21;;;;;;;;;;;4.50;81.20;;;;;;5028095;28;84861;-42
2022/01/08 08:10:49;;;;;;;;;;;4.60;81.30;;;;;;5027823;28;84609;-42
2022/01/08 08:13:19;;;;;;;;;;;4.60;81.20;;;;;;5027923;28;82047;-42
2022/01/08 08:15:44;;;;;;;;;;;4.60;81.30;;;;;;5027688;28;83651;-41
2022/01/08 08:18:10;;;;;;;;;;;4.60;81.20;;;;;;5027688;28;84939;-41
2022/01/08 08:20:36;;;;;;;;;;;4.50;81.50;;;;;;5027788;28;82033;-41
2022/01/08 08:23:02;;;;;;;;;;;4.60;81.50;;;;;;5030686;28;84114;-42
2022/01/08 08:25:27;;;;;;;;;;;4.50;81.30;;;;;;5027813;28;82056;-42
2022/01/08 08:27:53;;;;;;;;;;;4.50;81.40;;;;;;5027781;28;84124;-42
2022/01/08 08:30:18;;;;;;;;;;;4.50;81.30;;;;;;5026628;28;85834;-42
2022/01/08 08:32:44;;;;;;;;;;;4.50;81.40;;;;;;5027575;28;81839;-41
2022/01/08 08:35:10;;;;;;;;;;;4.50;81.60;;;;;;5028016;28;83296;-41
2022/01/08 08:37:36;;;;;;;;;;;4.40;81.70;;;;;;5027561;28;83509;-41
2022/01/08 08:40:06;;;;;;;;;;;4.40;81.80;;;;;;5027297;28;81952;-42
2022/01/08 08:42:31;;;;;;;;;;;4.40;82.00;;;;;;5027524;28;84012;-41
2022/01/08 08:44:57;;;;;;;;;;;4.40;81.80;;;;;;5030067;28;83375;-42
2022/01/08 08:47:22;;;;;;;;;;;4.40;82.00;;;;;;5028021;28;83182;-42
2022/01/08 08:49:48;;;;;;;;;;;4.40;82.00;;;;;;5027392;28;84431;-41
2022/01/08 08:52:13;;;;;;;;;;;4.40;81.90;;;;;;5027242;28;82051;-41
2022/01/08 08:54:41;;;;;;;;;;;4.40;81.90;;;;;;5027128;28;82910;-41
2022/01/08 08:57:07;;;;;;;;;;;4.40;82.00;;;;;;5027091;28;83696;-41
2022/01/08 08:59:33;;;;;;;;;;;4.40;82.00;;;;;;5027270;28;82103;-41
2022/01/08 09:01:58;;;;;;;;;;;4.40;82.00;;;;;;5027339;28;84613;-41
2022/01/08 09:04:24;;;;;;;;;;;4.40;82.00;;;;;;5027054;28;84868;-41
2022/01/08 09:06:49;;;;;;;;;;;4.40;82.10;;;;;;5029945;28;82053;-42
2022/01/08 09:09:15;;;;;;;;;;;4.40;81.90;;;;;;5027159;28;83660;-42
2022/01/08 09:11:41;;;;;;;;;;;4.50;81.80;;;;;;5027189;28;81351;-42
2022/01/08 09:14:07;;;;;;;;;;;4.40;81.80;;;;;;5026948;28;83094;-41
2022/01/08 09:16:33;;;;;;;;;;;4.40;81.70;;;;;;5026928;28;84533;-42
2022/01/08 09:18:59;;;;;;;;;;;4.40;81.90;;;;;;5026444;28;83005;-41
2022/01/08 09:21:25;;;;;;;;;;;4.40;82.10;;;;;;5026858;28;84993;-42
2022/01/08 09:23:51;;;;;;;;;;;4.40;82.00;;;;;;5026782;28;84167;-42
2022/01/08 09:26:16;;;;;;;;;;;4.40;82.00;;;;;;5026838;28;81900;-42
2022/01/08 09:28:42;;;;;;;;;;;4.40;81.90;;;;;;5029295;28;83966;-41
2022/01/08 09:31:07;;;;;;;;;;;4.40;82.00;;;;;;5027094;28;81947;-42
2022/01/08 09:33:33;;;;;;;;;;;4.40;82.00;;;;;;5026780;28;82774;-42
2022/01/08 09:35:59;;;;;;;;;;;4.40;81.90;;;;;;5027350;28;83774;-42
2022/01/08 09:38:24;;;;;;;;;;;4.50;81.80;;;;;;5026859;28;82202;-42
2022/01/08 09:40:50;;;;;;;;;;;4.50;81.90;;;;;;5026386;28;82996;-41
2022/01/08 09:43:16;;;;;;;;;;;4.50;81.80;;;;;;5025595;28;85705;-42
2022/01/08 09:45:43;;;;;;;;;;;4.40;81.80;;;;;;5026694;28;82037;-42
2022/01/08 09:48:08;;;;;;;;;;;4.40;81.90;;;;;;5026874;28;81748;-42
2022/01/08 09:50:34;;;;;;;;;;;4.40;82.10;;;;;;5029038;28;84080;-41
2022/01/08 09:52:59;;;;;;;;;;;4.40;82.20;;;;;;5026720;28;83873;-42
2022/01/08 09:55:26;;;;;;;;;;;4.40;82.00;;;;;;5026255;28;84307;-41
2022/01/08 09:57:52;;;;;;;;;;;4.40;82.30;;;;;;5026369;28;82112;-41
2022/01/08 10:00:18;;;;;;;;;;;4.40;82.40;;;;;;5026780;28;83797;-42
2022/01/08 10:02:46;;;;;;;;;;;4.30;82.40;;;;;;5026082;28;83192;-42
2022/01/08 10:05:14;;;;;;;;;;;4.40;82.30;;;;;;5026449;28;81792;-41
2022/01/08 10:07:40;;;;;;;;;;;4.40;82.40;;;;;;5025807;28;83793;-42
2022/01/08 10:10:12;;;;;;;;;;;4.40;82.10;;;;;;5026248;28;83605;-42
2022/01/08 10:12:52;;;;;;;;;;;4.50;82.10;;;;;;5028968;28;82074;-42
2022/01/08 10:18:20;;;;;;;;;;;4.60;82.00;;;;;;5025165;28;81850;-41
2022/01/08 10:20:49;;;;;;;;;;;4.50;82.00;;;;;;5026235;28;83802;-41
2022/01/08 10:23:25;;;;;;;;;;;4.60;81.80;;;;;;5026726;28;84472;-42
2022/01/08 10:26:07;;;;;;;;;;;4.60;81.80;;;;;;5030283;28;81388;-42
2022/01/08 10:28:32;;;;;;;;;;;4.60;81.60;;;;;;5029641;28;83029;-42
2022/01/08 10:31:11;;;;;;;;;;;4.60;81.60;;;;;;5029639;28;82936;-41
2022/01/08 10:33:38;;;;;;;;;;;4.60;82.00;;;;;;5031644;28;83065;-42
2022/01/08 10:36:04;;;;;;;;;;;4.60;81.80;;;;;;5029463;28;84153;-42
2022/01/08 10:38:30;;;;;;;;;;;4.60;81.70;;;;;;5029529;28;82145;-42
2022/01/08 10:40:56;;;;;;;;;;;4.60;81.90;;;;;;5029273;28;82915;-42
2022/01/08 10:43:26;;;;;;;;;;;4.60;81.90;;;;;;5029280;28;84347;-42
2022/01/08 10:45:53;;;;;;;;;;;4.60;81.70;;;;;;5029374;28;82196;-41
2022/01/08 10:48:28;;;;;;;;;;;4.50;82.20;;;;;;5029110;28;84180;-42
2022/01/08 10:51:06;;;;;;;;;;;4.50;81.80;;;;;;5029617;28;83521;-42
2022/01/08 10:53:50;;;;;;;;;;;4.50;81.90;;;;;;5029502;28;81890;-42
2022/01/08 10:56:32;;;;;;;;;;;4.40;82.20;;;;;;5031736;28;84341;-41
2022/01/08 10:58:59;;;;;;;;;;;4.40;82.30;;;;;;5028396;28;83027;-41
2022/01/08 11:01:35;;;;;;;;;;;4.50;82.10;;;;;;5028925;28;85019;-42
2022/01/08 11:04:00;;;;;;;;;;;4.40;82.20;;;;;;5028942;28;84094;-42
2022/01/08 11:06:26;;;;;;;;;;;4.40;82.60;;;;;;5029036;28;81995;-42
2022/01/08 11:09:01;;;;;;;;;;;4.40;82.50;;;;;;5029191;28;84247;-42
2022/01/08 11:11:30;;;;;;;;;;;4.40;82.50;;;;;;5028762;28;84881;-42
2022/01/08 11:14:04;;;;;;;;;;;4.40;82.60;;;;;;5029175;28;81978;-42
2022/01/08 11:16:30;;;;;;;;;;;4.40;82.80;;;;;;5029759;28;84218;-42
2022/01/08 11:18:55;;;;;;;;;;;4.40;82.80;;;;;;5031297;28;84509;-42
2022/01/08 11:21:21;;;;;;;;;;;4.40;82.70;;;;;;5028749;28;83889;-42
2022/01/08 11:23:47;;;;;;;;;;;4.40;83.00;;;;;;5027751;28;85639;-42
2022/01/08 11:26:13;;;;;;;;;;;4.40;82.80;;;;;;5028796;28;82088;-41
2022/01/08 11:28:43;;;;;;;;;;;4.40;82.90;;;;;;5029049;28;83073;-42
2022/01/08 11:31:11;;;;;;;;;;;4.40;82.60;;;;;;5028526;28;84784;-41
2022/01/08 11:33:42;;;;;;;;;;;4.40;82.70;;;;;;5028416;28;82071;-42
2022/01/08 11:36:09;;;;;;;;;;;4.40;82.80;;;;;;5028666;28;84013;-42
2022/01/08 11:38:35;;;;;;;;;;;4.50;82.60;;;;;;5028148;28;83592;-41
2022/01/08 11:41:00;;;;;;;;;;;4.50;82.80;;;;;;5031468;28;81025;-42
2022/01/08 11:43:28;;;;;;;;;;;4.40;82.70;;;;;;5028188;28;83707;-42
2022/01/08 11:45:58;;;;;;;;;;;4.50;83.00;;;;;;5028485;28;82490;-42
2022/01/08 11:48:28;;;;;;;;;;;4.50;82.70;;;;;;5027871;28;83858;-41
2022/01/08 11:50:55;;;;;;;;;;;4.50;82.70;;;;;;5028208;28;84301;-42
2022/01/08 11:53:20;;;;;;;;;;;4.40;83.00;;;;;;5028361;28;82104;-41
2022/01/08 11:55:54;;;;;;;;;;;4.50;82.70;;;;;;5028568;28;83553;-41
2022/01/08 11:58:30;;;;;;;;;;;4.50;82.90;;;;;;5027967;28;84571;-42
2022/01/08 12:00:57;;;;;;;;;;;4.50;82.80;;;;;;5028450;28;82093;-41
2022/01/08 12:03:24;;;;;;;;;;;4.50;82.70;;;;;;5030728;28;83677;-42
2022/01/08 12:05:49;;;;;;;;;;;4.50;82.80;;;;;;5028635;28;81405;-41
2022/01/08 12:08:17;;;;;;;;;;;4.50;82.70;;;;;;5028130;28;83356;-41
2022/01/08 12:11:01;;;;;;;;;;;4.50;82.90;;;;;;5028138;28;84339;-42
2022/01/08 12:13:44;;;;;;;;;;;4.50;82.80;;;;;;5027385;28;82909;-41
2022/01/08 12:16:28;;;;;;;;;;;4.50;82.70;;;;;;5027862;28;84932;-42
2022/01/08 12:18:53;;;;;;;;;;;4.60;82.80;;;;;;5027907;28;85010;-42
2022/01/08 12:21:45;;;;;;;;;;;4.60;82.70;;;;;;5027984;28;82103;-41
2022/01/08 12:24:26;;;;;;;;;;;4.60;82.80;;;;;;5028331;27;83958;-42
2022/01/08 12:26:52;;;;;;;;;;;4.60;82.90;;;;;;5030328;28;84816;-42
2022/01/08 12:29:32;;;;;;;;;;;4.60;83.00;;;;;;5027776;28;83789;-41
2022/01/08 12:32:16;;;;;;;;;;;4.60;82.70;;;;;;5028098;28;83604;-43
2022/01/08 12:35:00;;;;;;;;;;;4.60;83.10;;;;;;5027641;28;82082;-42
2022/01/08 12:37:34;;;;;;;;;;;4.60;82.60;;;;;;5027803;28;82937;-42
2022/01/08 12:40:00;;;;;;;;;;;4.60;82.90;;;;;;5026406;28;85747;-42
2022/01/08 12:42:29;;;;;;;;;;;4.60;82.70;;;;;;5027507;28;81895;-42
2022/01/08 12:45:03;;;;;;;;;;;4.70;82.90;;;;;;5027465;28;84156;-43
2022/01/08 12:47:40;;;;;;;;;;;4.70;82.60;;;;;;5028795;28;84107;-43
2022/01/08 12:50:26;;;;;;;;;;;4.70;83.10;;;;;;5027419;28;84109;-41
2022/01/08 12:53:04;;;;;;;;;;;4.70;83.00;;;;;;5027329;28;84570;-43
2022/01/08 12:55:33;;;;;;;;;;;4.70;83.10;;;;;;5027534;28;82126;-43
2022/01/08 12:57:58;;;;;;;;;;;4.70;82.90;;;;;;5027659;28;83298;-43
2022/01/08 13:00:25;;;;;;;;;;;4.70;83.10;;;;;;5027140;28;84421;-42
2022/01/08 13:02:50;;;;;;;;;;;4.70;83.00;;;;;;5027127;28;82087;-43
2022/01/08 13:05:16;;;;;;;;;;;4.70;83.00;;;;;;5026676;28;83254;-44
2022/01/08 13:07:51;;;;;;;;;;;4.70;83.00;;;;;;5027105;28;84618;-43
2022/01/08 13:10:18;;;;;;;;;;;4.70;83.40;;;;;;5029905;28;82079;-41
2022/01/08 13:12:43;;;;;;;;;;;4.70;82.70;;;;;;5026858;28;84523;-43
2022/01/08 13:15:09;;;;;;;;;;;4.70;83.10;;;;;;5027326;28;81758;-43
2022/01/08 13:17:35;;;;;;;;;;;4.70;83.00;;;;;;5027200;28;82804;-41
2022/01/08 13:20:02;;;;;;;;;;;4.70;82.90;;;;;;5026837;28;84994;-43
2022/01/08 13:22:28;;;;;;;;;;;4.70;82.80;;;;;;5027529;28;81346;-43
2022/01/08 13:24:53;;;;;;;;;;;4.70;83.00;;;;;;5027062;28;83177;-43
2022/01/08 13:27:22;;;;;;;;;;;4.80;83.20;;;;;;5026450;28;84491;-43
2022/01/08 13:29:49;;;;;;;;;;;4.80;83.10;;;;;;5026289;28;83141;-43
2022/01/08 13:32:14;;;;;;;;;;;4.80;83.40;;;;;;5029447;28;84029;-41
2022/01/08 13:34:41;;;;;;;;;;;4.80;82.90;;;;;;5026849;28;82198;-43
2022/01/08 13:37:23;;;;;;;;;;;4.80;83.20;;;;;;5026909;28;83275;-43
2022/01/08 13:39:55;;;;;;;;;;;4.80;83.40;;;;;;5026556;28;82295;-42
2022/01/08 13:42:21;;;;;;;;;;;4.80;84.10;;;;;;5026698;28;81920;-43
2022/01/08 13:44:51;;;;;;;;;;;4.80;83.00;;;;;;5026693;28;83933;-43
2022/01/08 13:47:17;;;;;;;;;;;4.90;83.80;;;;;;5027020;28;82211;-43
2022/01/08 13:49:45;;;;;;;;;;;4.90;83.60;;;;;;5026537;28;82151;-43
2022/01/08 13:52:16;;;;;;;;;;;4.90;83.50;;;;;;5026259;28;83908;-43
2022/01/08 13:54:41;;;;;;;;;;;4.90;83.50;;;;;;5028526;28;85348;-43
2022/01/08 13:57:11;;;;;;;;;;;4.90;83.40;;;;;;5027161;28;84784;-43
2022/01/08 13:59:36;;;;;;;;;;;4.90;83.10;;;;;;5029982;28;84534;-43
2022/01/08 14:02:02;;;;;;;;;;;4.90;83.90;;;;;;5030064;28;82100;-43
2022/01/08 14:04:29;;;;;;;;;;;4.90;83.00;;;;;;5030154;28;83769;-43
2022/01/08 14:06:57;;;;;;;;;;;4.90;84.00;;;;;;5029471;28;84413;-43
2022/01/08 14:09:22;;;;;;;;;;;4.90;83.40;;;;;;5030045;28;81727;-43
2022/01/08 14:11:49;;;;;;;;;;;4.90;83.80;;;;;;5030441;28;84084;-43
2022/01/08 14:14:19;;;;;;;;;;;4.90;83.80;;;;;;5029830;28;84450;-43
2022/01/08 14:16:46;;;;;;;;;;;4.90;84.10;;;;;;5032559;28;81908;-43
2022/01/08 14:19:11;;;;;;;;;;;4.90;84.10;;;;;;5028926;28;84356;-43
2022/01/08 14:21:37;;;;;;;;;;;4.90;83.70;;;;;;5029459;28;82336;-43
2022/01/08 14:24:16;;;;;;;;;;;4.90;84.00;;;;;;5029776;28;84048;-43
2022/01/08 14:26:57;;;;;;;;;;;5.00;83.90;;;;;;5029482;28;84513;-43
2022/01/08 14:29:25;;;;;;;;;;;4.90;83.90;;;;;;5029872;28;81967;-43
2022/01/08 14:31:54;;;;;;;;;;;5.00;83.80;;;;;;5029580;28;84385;-43
2022/01/08 14:34:22;;;;;;;;;;;5.00;84.00;;;;;;5029776;28;83730;-43
2022/01/08 14:36:56;;;;;;;;;;;5.00;84.00;;;;;;5030143;28;81399;-43
2022/01/08 14:39:31;;;;;;;;;;;4.90;83.90;;;;;;5032216;28;83233;-43
2022/01/08 14:41:57;;;;;;;;;;;5.00;83.90;;;;;;5029057;28;82061;-43
2022/01/08 14:44:23;;;;;;;;;;;5.00;83.90;;;;;;5028835;28;84221;-43
2022/01/08 14:46:49;;;;;;;;;;;5.00;83.80;;;;;;5029102;28;84386;-43
2022/01/08 14:49:14;;;;;;;;;;;5.00;83.80;;;;;;5029663;28;82060;-43
2022/01/08 14:51:40;;;;;;;;;;;5.00;83.80;;;;;;5029234;28;83856;-43